Accueil
METAR-TAF:

METAR-TAF

Aéroports :

Albert, France

Aéroport Albert-Picardie

latitude: 49-58-21N, longitude: 002-41-29E, altitude: 111 m

Observation

Le bulletin a été fait il y a 12 minutes, à 13:30 UTC
Vent 13 kt de ouest/sud-ouest
Température 11°C
Humidité 82%
Pression 1015 hPa
Visibilité 10 km ou plus

METAR: LFAQ 221330Z AUTO 25013KT 9999 FEW022/// BKN034/// BKN043/// ///CB 11/08 Q1015 TEMPO 23015G25KT BECMG BKN035

Heure: 15:42 (13:42 UTC)

Prévision

Le bulletin a été fait il y a 2 heures et 42 minutes, à 11:00 UTC
Prévision valable du 22 à 12 UTC au 22 à 21 UTC
Vent 13 kt de ouest
Visibilité 10 km ou plus
Nuages fragmentés à une hauteur de 3500 ft
Temporairement
du 22 à 12 UTC au 22 à 16 UTC
Vent 15 kt de sud-ouest avec des rafales jusqu'à 25 kt

TAF: LFAQ 221100Z 2212/2221 26013KT 9999 BKN035 TEMPO 2212/2216 23015G25KT

Observations et prévisions météorologiques de plus de 4000 aéroports (messages METAR et TAF).

Les stations disponibles sont représentées par des disques jaunes et rouges sur la carte.

Passer la souris dessus pour voir le nom de la station.

Cliquer dessus pour voir les observations et prévisions météorologiques.

Pour changer de carte: cliquez sur les boutons verts avec une croix noire pour zoomer, sur le bouton vert avec un tiret pour effectuer un zoom arrière, ou sur les flèches vertes pour les cartes adjacentes.


METAR-TAF: